LFMLLFMI

Guest
Details From LFML - Marseille/provence
To LFMI - Istres Le Tube Ba
Flight Number -
Tags Generated
Created
Modified
Stats Distance 13 nm / 25 km
Max Altitude 0 ft / 0 m
Waypoints 2
Social Downloads 0
Likes 0
Share VATSIM

Download

Looking for another format? Having issues loading an existing format? Contact us
Advertisement - Login to hide

Notes

Generated

Route

LFML LFMI

ID Type Via Altitude Latitude Longitude Leg Dist Tot Dist Heading (true) Name
O LFML APT - 0 ft / 0 m 43.44093˚ 5.20362˚ - 0 nm - -
O LFMI APT - 0 ft / 0 m 43.52330˚ 4.91812˚ 13 nm 13 nm 292° / 292° Istres Le Tube BA

Altitude Profile

Advertisement - Login to hide

LFML

Details ICAO LFML (MRS)
Name Marseille Provence
Region France
Timezone Europe/Paris (UTC+2.0)
Stats Elevation 74 ft / 23 m (AMSL)
Location 43.435892° 5.213282°
Runways 2
Magnetic Variation 1.602° E

METAR

LFML 220830Z AUTO VRB01KT 9999 BKN036 OVC094 18/14 Q1013 TEMPO TSRA SCT020 BKN036CB

Decode

TAF

TAF TAF LFML 220800Z 2209/2315 VRB05KT 9999 FEW010 BKN036 BECMG 2211/2212 25012KT BECMG 2216/2217 VRB05KT BECMG 2310/2312 20012KT TEMPO 2209/2219 RA BKN036 PROB40 TEMPO 2209/2219 5000 TSRA SCT020 BKN036CB TX23/2213Z TN15/2303Z

Decode

Departure Runways

ID Width Length Bearing (true) Bearing (mag) Surface Threshold Offset Overrun Length
13L 148 ft / 45 m 11,478 ft / 3,499 m 133.99° 132.39° Asphalt 1,115 ft / 340 m 0 ft / 0 m
13R 148 ft / 45 m 7,981 ft / 2,433 m 134.90° 133.30° Asphalt 0 ft / 0 m 0 ft / 0 m
31L 148 ft / 45 m 7,981 ft / 2,433 m 314.91° 313.31° Asphalt 344 ft / 105 m 0 ft / 0 m
31R 148 ft / 45 m 11,478 ft / 3,499 m 314.01° 312.41° Asphalt 2,165 ft / 660 m 0 ft / 0 m

LFMI

Details ICAO LFMI
Name Istres Le Tube BA
Region France
Timezone Europe/Paris (UTC+2.0)
Stats Elevation 81 ft / 25 m (AMSL)
Location 43.521242° 4.922320°
Runways 2
Magnetic Variation 1.532° E

METAR

LFMI 220830Z AUTO 00000KT 9999 FEW014 BKN098 BKN130 19/18 Q1013 TEMPO TSRA BKN013 BKN040CB BECMG 28010KT

Decode

TAF

TAF LFMI 220800Z 2209/2309 VRB05KT 9999 FEW032 BKN100 BECMG 2210/2212 28010KT BECMG 2212/2214 21010KT BECMG 2218/2219 VRB05KT TEMPO 2209/2219 RA SCT025 BKN040 PROB40 TEMPO 2209/2219 5000 TSRA BKN013 BKN040CB

Decode

Destination Runways

ID Width Length Bearing (true) Bearing (mag) Surface Threshold Offset Overrun Length
15 197 ft / 60 m 12,310 ft / 3,752 m 152.71° 151.18° Concrete 0 ft / 0 m 3,963 ft / 1,208 m
15R 82 ft / 25 m 2,955 ft / 901 m 152.72° 151.19° Concrete 0 ft / 0 m 0 ft / 0 m
33 197 ft / 60 m 12,310 ft / 3,752 m 332.73° 331.20° Concrete 0 ft / 0 m 374 ft / 114 m
33L 82 ft / 25 m 2,955 ft / 901 m 332.72° 331.19° Concrete 0 ft / 0 m 0 ft / 0 m

Approach Navaids

Runway Type Ident Frequency Range Bearing (true) Bearing (mag) Slope Elevation
15 Localiser IST 111.30 MHz 18 nm / 33 km 152.72° 151.19° - 71 ft / 22 m (AMSL)
15 Glidescope IST 111.30 MHz 10 nm / 19 km 152.72° 151.19° 3.00° 71 ft / 22 m (AMSL)
15 DME IST 111.30 MHz 18 nm / 33 km - - - 125 ft / 38 m (AMSL)

Popular Alternatives